Time;durP1;ratioP1;P1;durP2;ratioP2;P2;SDS_P1;SDS_P2;PMS_P1;PMS_P2;Temp;Humidity;BMP_temperature;BMP_pressure;BME280_temperature;BME280_humidity;BME280_pressure;Samples;Min_cycle;Max_cycle;Signal;HPM_P1;HPM_P2
2021/05/20 00:00:06;;;;;;;4.63;4.23;;;13.50;1.00;;;;;;5010963;28;20444;-76
2021/05/20 00:02:32;;;;;;;8.13;4.03;;;13.50;1.00;;;;;;5007556;28;21475;-77
2021/05/20 00:04:58;;;;;;;5.00;4.43;;;13.50;1.00;;;;;;5013685;28;21069;-76
2021/05/20 00:07:24;;;;;;;4.20;3.90;;;13.50;1.00;;;;;;5009670;28;20480;-75
2021/05/20 00:09:51;;;;;;;3.87;3.57;;;13.50;1.00;;;;;;5025589;28;20406;-76
2021/05/20 00:12:17;;;;;;;5.00;4.53;;;13.50;1.00;;;;;;5037921;28;20876;-76
2021/05/20 00:14:45;;;;;;;4.13;3.73;;;13.50;1.00;;;;;;5037968;28;20486;-74
2021/05/20 00:17:11;;;;;;;3.87;3.57;;;13.60;1.00;;;;;;5042269;28;20433;-75
2021/05/20 00:19:37;;;;;;;4.53;4.23;;;13.50;1.00;;;;;;5027109;28;20803;-75
2021/05/20 00:22:04;;;;;;;4.17;3.70;;;13.50;1.00;;;;;;5040539;28;20445;-76
2021/05/20 00:24:30;;;;;;;4.50;4.10;;;13.50;1.00;;;;;;4999165;28;20456;-76
2021/05/20 00:26:57;;;;;;;5.70;3.80;;;13.50;1.00;;;;;;5033594;28;20461;-77
2021/05/20 00:29:23;;;;;;;6.20;4.07;;;13.50;1.00;;;;;;5017245;28;20426;-76
2021/05/20 00:31:50;;;;;;;4.13;3.83;;;13.50;1.00;;;;;;5031264;28;21307;-75
2021/05/20 00:34:17;;;;;;;4.27;3.97;;;13.40;1.00;;;;;;5029595;28;20416;-76
2021/05/20 00:36:43;;;;;;;4.57;4.17;;;13.40;1.00;;;;;;5025735;28;21335;-75
2021/05/20 00:39:10;;;;;;;4.63;4.20;;;13.40;1.00;;;;;;5015338;28;20434;-76
2021/05/20 00:41:36;;;;;;;4.03;3.73;;;13.40;1.00;;;;;;5020314;28;20469;-77
2021/05/20 00:44:03;;;;;;;3.47;3.27;;;13.40;1.00;;;;;;5005140;28;20453;-76
2021/05/20 00:46:29;;;;;;;3.87;3.50;;;13.40;1.00;;;;;;5014041;28;20465;-77
2021/05/20 00:48:57;;;;;;;4.03;3.23;;;13.30;1.00;;;;;;5008445;28;20683;-78
2021/05/20 00:51:23;;;;;;;4.40;4.10;;;13.30;1.00;;;;;;5011415;28;20422;-78
2021/05/20 00:53:49;;;;;;;4.10;3.80;;;13.30;1.00;;;;;;5008227;28;20452;-77
2021/05/20 00:56:20;;;;;;;4.67;4.27;;;13.20;1.00;;;;;;5010584;28;20953;-76
2021/05/20 00:58:46;;;;;;;3.90;3.60;;;13.20;1.00;;;;;;5016944;28;20442;-77
2021/05/20 01:01:13;;;;;;;4.53;4.13;;;13.10;1.00;;;;;;5009489;28;20424;-79
2021/05/20 01:03:39;;;;;;;4.17;3.87;;;13.00;1.00;;;;;;5011226;28;20508;-78
2021/05/20 01:06:08;;;;;;;4.10;3.80;;;13.00;1.00;;;;;;5007625;28;20493;-77
2021/05/20 01:08:35;;;;;;;3.67;3.43;;;13.00;1.00;;;;;;5008661;28;20522;-77
2021/05/20 01:11:01;;;;;;;4.63;3.57;;;12.90;1.00;;;;;;5008590;28;20736;-78
2021/05/20 01:13:27;;;;;;;4.50;4.10;;;12.90;1.00;;;;;;5014985;28;20472;-77
2021/05/20 01:15:54;;;;;;;3.93;3.63;;;12.90;1.00;;;;;;5006517;28;20531;-76
2021/05/20 01:18:20;;;;;;;3.53;3.30;;;12.90;1.00;;;;;;5007475;28;21091;-77
2021/05/20 01:20:48;;;;;;;6.17;3.77;;;12.90;1.00;;;;;;5008939;28;20465;-76
2021/05/20 01:23:15;;;;;;;4.73;4.33;;;12.90;1.00;;;;;;5005827;28;20448;-79
2021/05/20 01:25:44;;;;;;;4.70;4.30;;;12.80;1.00;;;;;;5004789;28;20503;-78
2021/05/20 01:28:12;;;;;;;4.40;3.77;;;12.90;1.00;;;;;;5008103;28;21249;-76
2021/05/20 01:30:41;;;;;;;4.13;3.73;;;12.80;1.00;;;;;;5004787;28;20585;-75
2021/05/20 01:33:07;;;;;;;4.30;4.00;;;12.80;1.00;;;;;;4996859;28;20422;-77
2021/05/20 01:35:34;;;;;;;4.93;4.43;;;12.80;1.00;;;;;;5004802;28;20457;-76
2021/05/20 01:38:26;;;;;;;4.13;3.80;;;12.70;1.00;;;;;;5006385;28;20438;-77
2021/05/20 01:40:56;;;;;;;3.93;3.63;;;12.70;1.00;;;;;;5006630;28;20477;-77
2021/05/20 01:43:22;;;;;;;3.80;3.50;;;12.70;1.00;;;;;;5009415;28;20468;-76
2021/05/20 01:45:51;;;;;;;4.33;4.00;;;12.60;1.00;;;;;;5007251;28;20465;-76
2021/05/20 01:48:17;;;;;;;4.50;4.10;;;12.60;1.00;;;;;;5010599;28;20421;-77
2021/05/20 01:50:43;;;;;;;4.60;4.07;;;12.50;1.00;;;;;;5009888;28;20583;-77
2021/05/20 01:53:11;;;;;;;4.00;3.70;;;12.60;1.00;;;;;;5007825;28;20466;-77
2021/05/20 01:55:37;;;;;;;3.97;3.67;;;12.50;1.00;;;;;;5006675;28;20507;-75
2021/05/20 01:58:03;;;;;;;3.97;3.60;;;12.60;1.00;;;;;;5003400;28;21825;-77
2021/05/20 02:00:29;;;;;;;3.60;3.30;;;12.60;1.00;;;;;;5009842;28;20482;-77
2021/05/20 02:02:55;;;;;;;3.50;3.20;;;12.60;1.00;;;;;;5004582;28;20468;-78
2021/05/20 02:05:23;;;;;;;3.40;3.20;;;12.60;1.00;;;;;;5006655;28;22631;-77
2021/05/20 02:07:49;;;;;;;3.53;3.23;;;12.60;1.00;;;;;;5004901;28;20503;-76
2021/05/20 02:10:16;;;;;;;3.47;3.17;;;12.60;1.00;;;;;;5005691;28;20465;-76
2021/05/20 02:12:42;;;;;;;4.53;3.53;;;12.60;1.00;;;;;;5009026;28;20607;-76
2021/05/20 02:15:10;;;;;;;3.53;3.23;;;12.50;1.00;;;;;;5007286;28;20458;-75
2021/05/20 02:17:36;;;;;;;4.17;3.50;;;12.50;1.00;;;;;;5001486;28;20517;-76
2021/05/20 02:20:05;;;;;;;3.60;3.20;;;12.50;1.00;;;;;;5007340;28;20529;-77
2021/05/20 02:22:32;;;;;;;3.83;3.17;;;12.50;1.00;;;;;;5002976;28;20441;-76
2021/05/20 02:24:59;;;;;;;4.20;3.80;;;12.40;1.00;;;;;;5006737;28;20461;-78
2021/05/20 02:27:26;;;;;;;3.83;3.47;;;12.40;1.00;;;;;;5004616;28;21502;-77
2021/05/20 02:29:52;;;;;;;4.20;3.23;;;12.40;1.00;;;;;;5004669;28;21002;-77
2021/05/20 02:32:18;;;;;;;3.47;3.17;;;12.40;1.00;;;;;;5005355;28;20446;-78
2021/05/20 02:34:44;;;;;;;3.90;3.50;;;12.40;1.00;;;;;;5002264;28;21403;-77
2021/05/20 02:37:11;;;;;;;3.90;3.60;;;12.40;1.00;;;;;;5006626;28;20913;-76
2021/05/20 02:39:37;;;;;;;4.63;3.73;;;12.40;1.00;;;;;;5005852;28;20469;-78
2021/05/20 02:42:04;;;;;;;4.03;3.73;;;12.40;1.00;;;;;;4992229;28;20453;-77
2021/05/20 02:44:31;;;;;;;5.53;3.87;;;12.40;1.00;;;;;;5003398;28;20467;-77
2021/05/20 02:46:57;;;;;;;4.60;4.20;;;12.30;1.00;;;;;;5009572;28;20578;-78
2021/05/20 02:49:23;;;;;;;5.30;3.60;;;12.30;1.00;;;;;;5004053;28;20477;-77
2021/05/20 02:51:49;;;;;;;5.90;4.07;;;12.30;1.00;;;;;;5007069;28;20442;-77
2021/05/20 02:54:15;;;;;;;5.50;5.03;;;12.30;1.00;;;;;;5003760;28;20473;-77
2021/05/20 02:56:42;;;;;;;6.00;4.00;;;12.30;1.00;;;;;;5006940;28;20492;-75
2021/05/20 02:59:09;;;;;;;5.13;4.27;;;12.30;1.00;;;;;;5003832;28;20576;-76
2021/05/20 03:01:41;;;;;;;3.47;3.27;;;12.30;1.00;;;;;;5004123;28;20444;-77
2021/05/20 03:04:08;;;;;;;4.30;3.90;;;12.30;1.00;;;;;;5002175;28;20980;-77
2021/05/20 03:06:34;;;;;;;4.00;3.60;;;12.40;1.00;;;;;;5004445;28;20456;-77
2021/05/20 03:09:00;;;;;;;3.70;3.40;;;12.40;1.00;;;;;;5006479;28;20795;-77
2021/05/20 03:11:27;;;;;;;4.50;4.10;;;12.30;1.00;;;;;;5012278;28;20464;-77
2021/05/20 03:13:54;;;;;;;4.53;4.13;;;12.30;1.00;;;;;;5010328;28;20545;-77
2021/05/20 03:16:20;;;;;;;4.77;4.33;;;12.30;1.00;;;;;;4990658;28;20456;-78
2021/05/20 03:18:47;;;;;;;5.83;4.40;;;12.30;1.00;;;;;;5009153;28;21229;-76
2021/05/20 03:21:14;;;;;;;4.70;4.30;;;12.30;1.00;;;;;;5006500;28;21009;-77
2021/05/20 03:23:40;;;;;;;4.60;4.20;;;12.40;1.00;;;;;;5007850;28;20456;-75
2021/05/20 03:26:06;;;;;;;4.90;4.33;;;12.40;1.00;;;;;;5006394;28;20457;-77
2021/05/20 03:28:33;;;;;;;5.03;4.63;;;12.40;1.00;;;;;;5008395;28;20460;-76
2021/05/20 03:30:59;;;;;;;4.50;4.20;;;12.40;1.00;;;;;;5007680;28;20472;-76
2021/05/20 03:33:25;;;;;;;4.30;4.00;;;12.40;1.00;;;;;;5012039;28;20480;-75
2021/05/20 03:35:52;;;;;;;4.90;4.00;;;12.40;1.00;;;;;;5008265;28;20455;-77
2021/05/20 03:38:19;;;;;;;7.33;6.63;;;12.40;1.00;;;;;;5014643;28;20464;-75
2021/05/20 03:40:45;;;;;;;5.17;4.77;;;12.40;1.00;;;;;;5009443;28;20569;-77
2021/05/20 03:43:11;;;;;;;4.80;4.40;;;12.30;1.00;;;;;;5008329;28;20477;-76
2021/05/20 03:45:37;;;;;;;5.37;4.97;;;12.20;1.00;;;;;;5006723;28;20945;-77
2021/05/20 03:48:04;;;;;;;5.50;5.10;;;12.10;1.00;;;;;;5008064;28;20468;-75
2021/05/20 03:50:31;;;;;;;5.97;5.40;;;12.10;1.00;;;;;;5008412;28;20461;-75
2021/05/20 03:53:00;;;;;;;8.37;6.23;;;12.00;1.00;;;;;;5010200;28;20449;-77
2021/05/20 03:55:26;;;;;;;6.63;5.93;;;12.00;1.00;;;;;;5010348;28;20600;-77
2021/05/20 03:57:52;;;;;;;6.87;6.17;;;11.90;1.00;;;;;;5007501;28;20454;-76
2021/05/20 04:00:19;;;;;;;7.40;6.70;;;11.90;1.00;;;;;;5011062;28;20900;-76
2021/05/20 04:02:46;;;;;;;8.47;7.20;;;11.90;1.00;;;;;;5007651;28;20453;-77
2021/05/20 04:05:13;;;;;;;6.80;6.20;;;11.90;1.00;;;;;;5011333;28;20448;-76
2021/05/20 04:07:39;;;;;;;7.40;6.70;;;11.90;1.00;;;;;;5018154;28;22801;-76
2021/05/20 04:10:09;;;;;;;6.93;6.33;;;11.90;1.00;;;;;;5030242;28;20510;-77
2021/05/20 04:12:38;;;;;;;7.77;7.07;;;11.80;1.00;;;;;;5035696;28;20518;-75
2021/05/20 04:15:06;;;;;;;8.87;7.70;;;11.80;1.00;;;;;;5037443;28;20434;-75
2021/05/20 04:17:32;;;;;;;8.20;7.50;;;11.80;1.00;;;;;;5036377;28;20437;-74
2021/05/20 04:19:58;;;;;;;8.53;7.73;;;11.80;1.00;;;;;;5038270;28;20422;-76
2021/05/20 04:22:24;;;;;;;11.63;10.00;;;11.80;1.00;;;;;;5036981;28;20594;-75
2021/05/20 04:24:51;;;;;;;9.30;8.50;;;11.80;1.00;;;;;;5034133;28;20452;-76
2021/05/20 04:27:17;;;;;;;11.70;10.67;;;11.80;1.00;;;;;;5025774;28;20488;-76
2021/05/20 04:29:44;;;;;;;9.70;8.80;;;11.80;1.00;;;;;;5020207;28;20450;-76
2021/05/20 04:32:10;;;;;;;9.30;8.50;;;11.90;1.00;;;;;;5018319;28;20992;-76
2021/05/20 04:34:36;;;;;;;8.52;7.70;;;11.90;1.00;;;;;;5016815;28;24256;-76
2021/05/20 04:37:07;;;;;;;18.97;12.43;;;12.00;1.00;;;;;;5014742;28;20316;-76
2021/05/20 04:39:34;;;;;;;9.00;8.20;;;12.10;1.00;;;;;;5008354;28;20477;-76
2021/05/20 04:42:00;;;;;;;9.70;8.90;;;12.10;1.00;;;;;;5013902;28;20449;-77
2021/05/20 04:44:27;;;;;;;11.20;8.87;;;12.20;1.00;;;;;;5010032;28;20430;-76
2021/05/20 04:46:53;;;;;;;13.10;9.83;;;12.20;1.00;;;;;;5012368;28;20459;-75
2021/05/20 04:49:20;;;;;;;9.30;8.40;;;12.30;1.00;;;;;;5008739;28;20469;-76
2021/05/20 04:51:46;;;;;;;10.27;9.13;;;12.30;1.00;;;;;;5010947;28;20448;-77
2021/05/20 04:54:12;;;;;;;9.33;8.40;;;12.30;1.00;;;;;;5008437;28;22721;-76
2021/05/20 04:56:39;;;;;;;11.00;9.37;;;12.40;1.00;;;;;;5009718;28;20461;-76
2021/05/20 04:59:05;;;;;;;10.20;9.30;;;12.50;1.00;;;;;;5006676;28;21079;-76
2021/05/20 05:01:33;;;;;;;10.10;9.13;;;12.50;1.00;;;;;;5010079;28;20970;-76
2021/05/20 05:03:59;;;;;;;11.33;8.67;;;12.60;1.00;;;;;;5006625;28;22973;-75
2021/05/20 05:06:26;;;;;;;10.20;9.23;;;12.70;1.00;;;;;;5010793;28;20423;-76
2021/05/20 05:08:52;;;;;;;10.30;9.30;;;12.80;1.00;;;;;;4999877;28;21048;-77
2021/05/20 05:11:18;;;;;;;8.87;8.00;;;12.90;1.00;;;;;;5010624;28;20457;-77
2021/05/20 05:13:44;;;;;;;9.43;8.53;;;12.90;1.00;;;;;;5003468;28;20962;-77
2021/05/20 05:16:10;;;;;;;8.37;7.70;;;12.90;1.00;;;;;;4993348;28;20448;-77
2021/05/20 05:18:38;;;;;;;9.27;8.37;;;12.80;1.00;;;;;;4993512;28;20466;-78
2021/05/20 05:21:04;;;;;;;8.27;7.43;;;12.70;1.00;;;;;;5008489;28;21163;-77
2021/05/20 05:23:32;;;;;;;9.27;8.27;;;12.70;1.00;;;;;;5013197;28;20456;-78
2021/05/20 05:25:58;;;;;;;8.37;7.70;;;12.70;1.00;;;;;;5007144;28;20938;-78
2021/05/20 05:28:24;;;;;;;8.23;7.53;;;12.80;1.00;;;;;;5011148;28;20481;-76
2021/05/20 05:30:51;;;;;;;9.03;8.23;;;13.00;1.00;;;;;;5006353;28;20477;-78
2021/05/20 05:33:18;;;;;;;12.00;10.73;;;13.10;1.00;;;;;;5015804;28;20533;-77
2021/05/20 05:35:45;;;;;;;9.00;8.23;;;13.30;1.00;;;;;;5010393;28;20458;-77
2021/05/20 05:38:13;;;;;;;8.47;7.77;;;13.40;1.00;;;;;;4993870;28;20554;-76
2021/05/20 05:40:40;;;;;;;7.77;7.07;;;13.50;1.00;;;;;;5009852;28;20624;-77
2021/05/20 05:43:06;;;;;;;9.43;8.47;;;13.60;1.00;;;;;;5009396;28;20500;-77
2021/05/20 05:45:32;;;;;;;12.13;7.50;;;13.60;1.00;;;;;;5013297;28;20434;-82
2021/05/20 05:47:59;;;;;;;8.20;7.50;;;13.70;1.00;;;;;;5018380;28;20449;-80
2021/05/20 05:50:25;;;;;;;6.43;5.83;;;13.90;1.00;;;;;;5011529;28;20489;-80
2021/05/20 05:52:52;;;;;;;7.80;7.20;;;14.10;1.00;;;;;;5012106;28;20448;-85
2021/05/20 05:55:19;;;;;;;10.03;7.20;;;14.00;1.00;;;;;;5012187;28;20473;-84
2021/05/20 05:57:45;;;;;;;9.43;6.87;;;14.00;1.00;;;;;;5021917;28;20465;-84
2021/05/20 06:00:13;;;;;;;7.50;6.90;;;14.10;1.00;;;;;;5002323;28;20455;-83
2021/05/20 06:02:39;;;;;;;7.50;6.90;;;14.10;1.00;;;;;;5023221;28;20463;-84
2021/05/20 06:05:07;;;;;;;7.80;7.20;;;14.20;1.00;;;;;;5023074;28;20448;-85
2021/05/20 06:07:35;;;;;;;8.20;7.50;;;14.40;1.00;;;;;;5007170;28;20477;-85
2021/05/20 06:10:03;;;;;;;7.60;6.87;;;14.40;1.00;;;;;;5029586;28;20497;-83
2021/05/20 06:12:29;;;;;;;8.93;7.83;;;14.30;1.00;;;;;;5006974;28;20445;-83
2021/05/20 06:14:56;;;;;;;9.57;8.73;;;14.30;1.00;;;;;;5010923;28;20521;-82
2021/05/20 06:17:23;;;;;;;7.07;6.40;;;14.20;1.00;;;;;;5017757;28;20410;-83
2021/05/20 06:19:49;;;;;;;7.37;6.70;;;14.20;1.00;;;;;;5023056;28;20466;-83
2021/05/20 06:22:15;;;;;;;7.83;7.23;;;14.20;1.00;;;;;;5025180;28;20536;-84
2021/05/20 06:24:42;;;;;;;12.10;10.80;;;14.10;1.00;;;;;;5023810;28;20485;-83
2021/05/20 06:27:11;;;;;;;8.83;7.93;;;14.10;1.00;;;;;;5018695;28;20470;-84
2021/05/20 06:29:38;;;;;;;8.70;7.90;;;14.10;1.00;;;;;;5018316;28;24582;-85
2021/05/20 06:32:06;;;;;;;7.80;7.07;;;14.20;1.00;;;;;;5005899;28;20434;-83
2021/05/20 06:34:32;;;;;;;7.30;6.60;;;14.20;1.00;;;;;;5017001;28;20422;-82
2021/05/20 06:37:02;;;;;;;7.03;6.53;;;14.30;1.00;;;;;;4994328;28;20462;-82
2021/05/20 06:39:28;;;;;;;7.80;7.20;;;14.40;1.00;;;;;;5017775;28;20496;-82
2021/05/20 06:41:55;;;;;;;7.57;6.67;;;14.40;1.00;;;;;;5012704;28;20444;-83
2021/05/20 06:44:22;;;;;;;7.20;6.50;;;14.40;1.00;;;;;;5014365;28;20440;-83
2021/05/20 06:46:49;;;;;;;7.40;6.80;;;14.60;1.00;;;;;;5016455;28;20472;-83
2021/05/20 06:49:15;;;;;;;8.50;7.70;;;14.70;1.00;;;;;;5015860;28;20470;-84
2021/05/20 06:51:41;;;;;;;9.60;7.27;;;14.70;1.00;;;;;;4994602;28;21296;-83
2021/05/20 06:54:12;;;;;;;8.00;7.30;;;14.90;1.00;;;;;;5007397;28;20645;-84
2021/05/20 06:56:41;;;;;;;7.17;6.57;;;15.10;1.00;;;;;;5014315;28;20440;-83
2021/05/20 07:01:53;;;;;;;7.33;6.83;;;15.30;1.00;;;;;;4993161;28;20497;-83
2021/05/20 07:04:19;;;;;;;7.90;7.30;;;15.20;1.00;;;;;;5001817;28;20437;-81
2021/05/20 07:06:47;;;;;;;6.77;6.17;;;15.30;1.00;;;;;;5004581;28;20431;-81
2021/05/20 07:09:15;;;;;;;6.93;6.33;;;15.40;1.00;;;;;;5006243;28;20667;-81
2021/05/20 07:11:42;;;;;;;6.73;6.13;;;15.30;1.00;;;;;;5010998;28;20625;-82
2021/05/20 07:14:09;;;;;;;9.00;7.13;;;15.30;1.00;;;;;;5015230;28;20450;-79
2021/05/20 07:16:36;;;;;;;6.23;5.67;;;15.30;1.00;;;;;;5006629;28;21227;-80
2021/05/20 07:19:04;;;;;;;12.47;11.17;;;15.40;1.00;;;;;;5005133;28;20476;-82
2021/05/20 07:21:30;;;;;;;6.13;5.43;;;15.70;1.00;;;;;;5011144;28;21812;-81
2021/05/20 07:23:56;;;;;;;6.57;5.83;;;15.70;1.00;;;;;;5009240;28;20462;-82
2021/05/20 07:26:23;;;;;;;6.80;5.93;;;15.70;1.00;;;;;;5011377;28;20548;-81
2021/05/20 07:28:52;;;;;;;8.90;7.67;;;15.80;1.00;;;;;;5005895;28;20458;-83
2021/05/20 07:31:19;;;;;;;5.83;5.37;;;15.90;1.00;;;;;;5010162;28;20425;-82
2021/05/20 07:33:45;;;;;;;7.27;5.23;;;16.00;1.00;;;;;;5017364;28;20608;-81
2021/05/20 07:36:12;;;;;;;5.40;4.83;;;16.00;1.00;;;;;;5007762;28;20516;-81
2021/05/20 07:38:39;;;;;;;6.50;5.70;;;16.10;1.00;;;;;;5007683;28;20587;-80
2021/05/20 07:41:05;;;;;;;5.27;4.83;;;16.30;1.00;;;;;;5004792;28;21253;-81
2021/05/20 07:43:32;;;;;;;5.80;5.30;;;16.40;1.00;;;;;;5005602;28;20516;-81
2021/05/20 07:45:59;;;;;;;5.67;4.47;;;16.50;1.00;;;;;;5008567;28;20458;-81
2021/05/20 07:48:25;;;;;;;7.33;5.43;;;16.70;1.00;;;;;;5012367;28;20550;-82
2021/05/20 07:50:52;;;;;;;4.10;3.80;;;16.80;1.00;;;;;;5009013;28;20413;-82
2021/05/20 07:53:19;;;;;;;3.80;3.50;;;16.70;1.00;;;;;;5019069;28;20427;-79
2021/05/20 07:55:46;;;;;;;5.60;5.10;;;16.60;1.00;;;;;;5001070;28;20414;-80
2021/05/20 07:58:12;;;;;;;5.97;3.23;;;16.70;1.00;;;;;;5011467;28;20507;-80
2021/05/20 08:00:38;;;;;;;5.53;3.10;;;16.70;1.00;;;;;;5009778;28;20450;-80
2021/05/20 08:03:15;;;;;;;3.10;2.90;;;16.80;1.00;;;;;;5013551;28;20458;-82
2021/05/20 08:05:49;;;;;;;3.20;2.90;;;16.80;1.00;;;;;;4990600;28;21341;-80
2021/05/20 08:08:20;;;;;;;4.50;4.10;;;16.90;1.00;;;;;;5016806;28;20527;-79
2021/05/20 08:10:51;;;;;;;4.00;3.40;;;17.10;1.00;;;;;;5026761;28;20448;-80
2021/05/20 08:13:18;;;;;;;3.23;3.03;;;17.30;1.00;;;;;;5041003;28;20419;-79
2021/05/20 08:15:45;;;;;;;5.70;3.57;;;17.40;1.00;;;;;;5035412;28;20455;-82
2021/05/20 08:18:12;;;;;;;4.63;3.77;;;17.30;1.00;;;;;;5043545;28;20495;-85
2021/05/20 08:20:38;;;;;;;3.00;2.80;;;17.30;1.00;;;;;;5024144;28;20565;-81
2021/05/20 08:23:05;;;;;;;4.47;3.73;;;17.30;1.00;;;;;;5041998;28;20417;-84
2021/05/20 08:25:40;;;;;;;5.83;4.07;;;17.10;1.00;;;;;;5032495;28;20539;-81
2021/05/20 08:28:07;;;;;;;3.73;3.43;;;17.00;1.00;;;;;;5020093;28;20475;-82
2021/05/20 08:30:34;;;;;;;4.37;3.33;;;17.00;1.00;;;;;;5033109;28;20403;-79
2021/05/20 08:33:00;;;;;;;5.40;4.30;;;17.10;1.00;;;;;;5028522;28;20617;-79
2021/05/20 08:35:30;;;;;;;6.07;4.67;;;17.20;1.00;;;;;;5032632;28;21438;-76
2021/05/20 08:38:02;;;;;;;4.50;3.73;;;17.20;1.00;;;;;;5022707;28;20451;-77
2021/05/20 08:40:29;;;;;;;3.43;3.20;;;17.10;1.00;;;;;;5013114;28;20401;-79
2021/05/20 08:42:55;;;;;;;5.20;3.70;;;17.40;1.00;;;;;;5022130;28;20454;-78
2021/05/20 08:45:26;;;;;;;11.80;7.97;;;17.70;1.00;;;;;;5030264;28;20422;-80
2021/05/20 08:47:56;;;;;;;3.73;3.43;;;17.90;1.00;;;;;;5035780;28;20433;-82
2021/05/20 08:50:25;;;;;;;3.70;2.67;;;17.60;1.00;;;;;;5033660;28;20460;-79
2021/05/20 08:52:53;;;;;;;5.37;2.77;;;17.20;1.00;;;;;;5034953;28;20548;-80
2021/05/20 08:55:24;;;;;;;2.93;2.40;;;17.10;1.00;;;;;;5034370;28;20449;-80
2021/05/20 08:57:51;;;;;;;2.77;2.57;;;17.30;1.00;;;;;;5014969;28;20460;-79
2021/05/20 09:00:20;;;;;;;5.50;2.90;;;17.60;1.00;;;;;;5014411;28;20531;-80
2021/05/20 09:02:47;;;;;;;2.63;2.43;;;17.90;1.00;;;;;;5008720;28;21005;-79
2021/05/20 09:05:17;;;;;;;2.27;2.07;;;17.80;1.00;;;;;;5013133;28;21151;-79
2021/05/20 09:07:50;;;;;;;6.10;2.97;;;17.50;1.00;;;;;;5034367;28;20435;-81
2021/05/20 09:10:42;;;;;;;2.37;2.17;;;17.10;1.00;;;;;;5040198;28;20415;-82
2021/05/20 09:13:12;;;;;;;3.10;2.30;;;17.30;1.00;;;;;;5041597;28;20483;-82
2021/05/20 09:15:42;;;;;;;3.43;2.80;;;17.80;1.00;;;;;;5028021;28;20483;-82
2021/05/20 09:18:15;;;;;;;3.40;2.87;;;18.20;1.00;;;;;;5032500;28;21732;-81
2021/05/20 09:20:44;;;;;;;2.70;2.50;;;18.10;1.00;;;;;;5034983;28;21319;-80
2021/05/20 09:23:11;;;;;;;3.50;2.20;;;17.70;1.00;;;;;;5017230;28;20480;-80
2021/05/20 09:25:39;;;;;;;3.90;2.70;;;18.00;1.00;;;;;;5017554;28;20450;-81
2021/05/20 09:28:07;;;;;;;2.47;2.27;;;18.70;1.00;;;;;;5014761;28;20519;-78
2021/05/20 09:30:36;;;;;;;4.63;3.57;;;19.80;1.00;;;;;;5038015;28;20466;-79
2021/05/20 09:33:08;;;;;;;2.67;2.30;;;19.90;1.00;;;;;;5026631;28;20437;-80
2021/05/20 09:35:50;;;;;;;7.37;3.43;;;19.80;1.00;;;;;;5032773;28;20450;-80
2021/05/20 09:38:19;;;;;;;3.93;1.90;;;20.10;1.00;;;;;;5038188;28;20480;-79
2021/05/20 09:41:00;;;;;;;8.00;5.10;;;21.20;1.00;;;;;;5040267;28;20417;-82
2021/05/20 09:43:30;;;;;;;3.57;1.70;;;22.60;1.00;;;;;;5035041;28;20443;-81
2021/05/20 09:45:58;;;;;;;2.20;2.00;;;24.00;1.00;;;;;;5032322;28;20437;-82
2021/05/20 09:48:33;;;;;;;1.93;1.57;;;25.00;1.00;;;;;;5028206;28;20473;-81
2021/05/20 09:51:00;;;;;;;2.10;1.80;;;25.60;1.00;;;;;;5018795;28;20465;-82
2021/05/20 09:53:33;;;;;;;2.30;2.10;;;25.90;1.00;;;;;;5025058;28;20438;-82
2021/05/20 09:56:07;;;;;;;2.60;2.00;;;25.60;1.00;;;;;;5021980;28;20457;-85
2021/05/20 09:58:41;;;;;;;3.67;1.73;;;24.10;1.00;;;;;;5037563;28;20575;-82
2021/05/20 10:01:29;;;;;;;2.23;1.90;;;22.90;1.00;;;;;;5028222;28;20402;-81
2021/05/20 10:04:02;;;;;;;3.20;1.83;;;22.60;1.00;;;;;;5038257;28;20453;-81
2021/05/20 10:06:38;;;;;;;3.70;2.40;;;23.60;1.00;;;;;;5019087;28;20417;-82
2021/05/20 10:09:11;;;;;;;3.47;2.80;;;25.00;1.00;;;;;;5000053;28;20480;-82
2021/05/20 10:11:39;;;;;;;2.17;1.97;;;25.60;1.00;;;;;;5020429;28;20410;-81
2021/05/20 10:14:12;;;;;;;4.10;2.63;;;25.30;1.00;;;;;;5019736;28;22689;-80
2021/05/20 10:16:39;;;;;;;2.10;2.00;;;25.60;1.00;;;;;;5019879;28;20505;-80
2021/05/20 10:19:06;;;;;;;2.03;1.83;;;26.60;1.00;;;;;;5011178;28;20550;-81
2021/05/20 10:21:33;;;;;;;3.00;2.10;;;26.10;1.00;;;;;;5012004;28;20456;-80
2021/05/20 10:24:00;;;;;;;2.77;2.30;;;24.70;1.00;;;;;;5014066;28;20515;-81
2021/05/20 10:26:26;;;;;;;4.60;2.87;;;23.20;1.00;;;;;;5014461;28;21352;-81
2021/05/20 10:28:52;;;;;;;4.30;2.83;;;23.10;1.00;;;;;;5012361;28;20582;-81
2021/05/20 10:31:20;;;;;;;2.37;1.83;;;24.00;1.00;;;;;;5007912;28;20439;-80
2021/05/20 10:33:46;;;;;;;2.10;1.97;;;25.40;1.00;;;;;;5013130;28;20463;-80
2021/05/20 10:36:21;;;;;;;2.27;2.07;;;26.80;1.00;;;;;;5010712;28;20455;-81
2021/05/20 10:38:48;;;;;;;4.87;2.70;;;28.00;1.00;;;;;;5014523;28;20561;-80
2021/05/20 10:41:17;;;;;;;3.80;2.03;;;28.30;1.00;;;;;;4996437;28;20485;-81
2021/05/20 10:43:45;;;;;;;4.03;1.93;;;27.00;1.00;;;;;;5016016;28;21465;-82
2021/05/20 10:46:13;;;;;;;2.63;1.80;;;26.90;1.00;;;;;;5015647;28;20502;-80
2021/05/20 10:48:49;;;;;;;2.10;1.90;;;26.10;1.00;;;;;;5008254;28;20476;-80
2021/05/20 10:51:23;;;;;;;1.93;1.63;;;24.50;1.00;;;;;;5016060;28;20441;-81
2021/05/20 10:53:57;;;;;;;2.20;1.60;;;25.10;1.00;;;;;;5007701;28;20655;-80
2021/05/20 10:56:50;;;;;;;1.80;1.70;;;26.20;1.00;;;;;;5015831;28;20567;-81
2021/05/20 10:59:43;;;;;;;2.47;1.63;;;27.50;1.00;;;;;;5008867;28;20479;-81
2021/05/20 11:02:39;;;;;;;1.60;1.50;;;28.30;1.00;;;;;;5010872;28;20977;-81
2021/05/20 11:05:57;;;;;;;1.47;1.37;;;29.20;1.00;;;;;;5012389;28;20455;-81
2021/05/20 11:08:52;;;;;;;2.83;2.50;;;29.50;1.00;;;;;;5023950;28;20436;-80
2021/05/20 11:11:51;;;;;;;2.60;2.40;;;29.60;1.00;;;;;;5018203;28;20468;-80
2021/05/20 11:14:42;;;;;;;1.70;1.43;;;30.10;1.00;;;;;;5007721;28;20425;-80
2021/05/20 11:17:28;;;;;;;3.80;2.00;;;30.70;1.00;;;;;;5019285;28;20428;-81
2021/05/20 11:20:45;;;;;;;2.77;2.17;;;31.10;1.00;;;;;;5021388;28;20416;-80
2021/05/20 11:23:23;;;;;;;2.77;2.57;;;30.70;1.00;;;;;;5016592;28;20464;-80
2021/05/20 11:26:15;;;;;;;3.40;3.10;;;29.80;1.00;;;;;;5012494;28;23375;-80
2021/05/20 11:28:58;;;;;;;4.50;3.43;;;27.80;1.00;;;;;;5013611;28;20534;-80
2021/05/20 11:31:27;;;;;;;2.50;2.30;;;27.00;1.00;;;;;;5018410;28;20410;-80
2021/05/20 11:36:58;;;;;;;5.63;3.13;;;29.50;1.00;;;;;;5005081;28;20441;-82
2021/05/20 11:39:24;;;;;;;2.60;2.00;;;30.10;1.00;;;;;;5021101;28;20537;-83
2021/05/20 11:41:52;;;;;;;2.63;2.00;;;30.40;1.00;;;;;;5029000;28;20455;-84
2021/05/20 11:44:21;;;;;;;1.97;1.83;;;30.90;1.00;;;;;;5023780;28;20450;-83
2021/05/20 11:47:02;;;;;;;2.17;1.80;;;30.90;1.00;;;;;;5028090;28;20475;-84
2021/05/20 11:49:29;;;;;;;3.97;2.13;;;31.40;1.00;;;;;;5024424;28;20432;-82
2021/05/20 11:52:03;;;;;;;1.73;1.63;;;31.80;1.00;;;;;;5043690;28;20557;-79
2021/05/20 11:57:25;;;;;;;3.07;1.50;;;33.20;1.00;;;;;;5043014;28;20409;-79
2021/05/20 11:59:52;;;;;;;1.70;1.53;;;31.90;1.00;;;;;;5032637;28;20546;-80
2021/05/20 12:02:21;;;;;;;1.57;1.47;;;30.90;1.00;;;;;;5029699;28;20556;-81
2021/05/20 12:04:49;;;;;;;1.87;1.50;;;28.70;1.00;;;;;;5015777;28;20439;-83
2021/05/20 12:07:25;;;;;;;2.40;1.53;;;27.90;1.00;;;;;;5042177;28;20433;-81
2021/05/20 12:10:06;;;;;;;3.27;1.50;;;27.50;1.00;;;;;;5023116;28;20457;-81
2021/05/20 12:12:33;;;;;;;2.30;1.60;;;27.90;1.00;;;;;;5032454;28;21616;-82
2021/05/20 12:14:59;;;;;;;1.43;1.20;;;29.10;1.00;;;;;;5031973;28;20462;-83
2021/05/20 12:17:27;;;;;;;1.63;1.37;;;30.20;1.00;;;;;;5037477;28;20415;-80
2021/05/20 12:19:59;;;;;;;1.83;0.80;;;31.20;1.00;;;;;;5040870;28;20400;-81
2021/05/20 12:22:28;;;;;;;1.13;1.03;;;31.90;1.00;;;;;;5013133;28;20489;-78
2021/05/20 12:24:56;;;;;;;2.00;1.10;;;30.50;1.00;;;;;;5031282;28;20417;-80
2021/05/20 12:27:28;;;;;;;2.20;1.33;;;30.30;1.00;;;;;;5036213;28;20517;-79
2021/05/20 12:29:56;;;;;;;2.13;1.67;;;31.20;1.00;;;;;;5040166;28;20491;-79
2021/05/20 12:32:25;;;;;;;1.73;1.20;;;31.60;1.00;;;;;;5029640;28;20431;-80
2021/05/20 12:35:07;;;;;;;1.30;0.87;;;32.20;1.00;;;;;;5031513;28;20672;-83
2021/05/20 12:37:46;;;;;;;3.30;1.50;;;33.30;1.00;;;;;;5027488;28;20448;-80
2021/05/20 12:40:14;;;;;;;4.90;1.57;;;32.10;1.00;;;;;;5017689;28;20470;-80
2021/05/20 12:42:41;;;;;;;2.53;1.40;;;30.30;1.00;;;;;;5030280;28;20414;-82
2021/05/20 12:45:09;;;;;;;2.77;1.13;;;30.60;1.00;;;;;;5030426;28;20463;-80
2021/05/20 12:47:46;;;;;;;2.63;1.37;;;31.50;1.00;;;;;;5019968;28;20458;-80
2021/05/20 12:50:26;;;;;;;2.10;1.33;;;32.60;1.00;;;;;;5029934;28;20982;-79
2021/05/20 12:52:56;;;;;;;1.67;1.33;;;31.70;1.00;;;;;;5023720;28;20487;-80
2021/05/20 12:55:37;;;;;;;1.50;0.93;;;31.00;1.00;;;;;;5026178;28;20463;-79
2021/05/20 12:58:04;;;;;;;1.63;1.40;;;31.00;1.00;;;;;;5031071;28;20438;-76
2021/05/20 13:00:55;;;;;;;5.77;2.00;;;31.10;1.00;;;;;;5032618;28;20432;-80
2021/05/20 13:03:21;;;;;;;1.70;1.60;;;31.90;1.00;;;;;;5025789;28;20459;-79
2021/05/20 13:05:51;;;;;;;5.60;3.23;;;31.50;1.00;;;;;;5025992;28;20471;-79
2021/05/20 13:08:26;;;;;;;2.30;1.97;;;31.90;1.00;;;;;;5027477;28;20465;-79
2021/05/20 13:10:52;;;;;;;4.57;1.67;;;32.50;1.00;;;;;;5029155;28;20441;-79
2021/05/20 13:13:30;;;;;;;2.37;1.53;;;33.30;1.00;;;;;;5017427;28;20454;-79